Newton, New Hampshire
Current Conditions -  °F | °C
As of 12:54 AM on Tuesday 27 Jan 2015 (Local Time) from KLWM Reporting Station
Light Snow Light Snow  
Wind Chill: -6°   Ceiling: 800
Heat Index: 13°   Visibility: 0.75mi
Dew Point: 10°   Wind: 22mph
Humidity: 88%   Direction: 10°N
Pressure: 29.84"   Gusts: 35mph
Location:  42.87°N, 71.03°W
Report Text: KLWM 270554Z AUTO 01019G30KT 3/4SM -SN BR VV008 M11/M12 A2984 RMK AO2 PK WND 03030/0552 SLP106 P0000 60000 T11061122 11067 21106 56036
Loading
Personal Weather Stations






























Interactive Weather Map New forecast layout! Learn more

10-Day Weather Forecast

Advertisements
Track Severe Weather on mobile